Time;durP1;ratioP1;P1;durP2;ratioP2;P2;SDS_P1;SDS_P2;PMS_P1;PMS_P2;Temp;Humidity;BMP_temperature;BMP_pressure;BME280_temperature;BME280_humidity;BME280_pressure;Samples;Min_cycle;Max_cycle;Signal;HPM_P1;HPM_P2
2023/07/16 00:01:23;;;;;;;8.75;3.50;;;;;;;19.31;100.00;97152.38;5081387;28;20109;-85
2023/07/16 00:04:07;;;;;;;10.02;3.22;;;;;;;19.26;100.00;97159.38;5078257;28;20058;-84
2023/07/16 00:06:51;;;;;;;10.43;3.53;;;;;;;19.34;100.00;97151.78;5078876;28;20100;-84
2023/07/16 00:09:35;;;;;;;10.50;3.70;;;;;;;19.29;100.00;97150.00;5080009;28;20060;-83
2023/07/16 00:12:19;;;;;;;7.13;3.28;;;;;;;19.41;100.00;97166.25;5083506;28;20094;-83
2023/07/16 00:15:03;;;;;;;10.57;3.30;;;;;;;19.69;100.00;97168.06;5079038;28;20046;-82
2023/07/16 00:17:47;;;;;;;11.93;3.60;;;;;;;19.01;100.00;97170.53;5081535;28;20098;-87
2023/07/16 00:20:32;;;;;;;8.80;3.25;;;;;;;18.87;100.00;97165.97;5079249;28;20109;-85
2023/07/16 00:23:17;;;;;;;10.75;3.85;;;;;;;19.22;100.00;97171.69;5078374;28;20513;-85
2023/07/16 00:26:01;;;;;;;10.70;3.35;;;;;;;19.04;100.00;97176.03;5077728;28;20051;-84
2023/07/16 00:28:46;;;;;;;8.88;2.95;;;;;;;19.32;100.00;97180.56;5078927;28;20064;-86
2023/07/16 00:31:30;;;;;;;11.13;3.17;;;;;;;19.48;100.00;97173.03;5079082;28;20436;-84
2023/07/16 00:34:15;;;;;;;8.98;3.15;;;;;;;19.81;100.00;97178.94;5081087;28;20082;-83
2023/07/16 00:37:01;;;;;;;10.73;3.17;;;;;;;19.57;100.00;97173.13;5081797;28;20046;-82
2023/07/16 00:39:45;;;;;;;9.65;3.05;;;;;;;19.46;100.00;97170.69;5083199;28;20035;-86
2023/07/16 00:42:29;;;;;;;8.32;2.90;;;;;;;19.68;100.00;97190.44;5079390;28;20057;-87
2023/07/16 00:45:14;;;;;;;10.35;2.60;;;;;;;19.49;100.00;97188.72;5081168;28;20046;-86
2023/07/16 00:47:58;;;;;;;8.35;2.95;;;;;;;19.77;100.00;97195.84;5081089;28;20051;-83
2023/07/16 00:50:42;;;;;;;6.25;2.75;;;;;;;19.97;100.00;97202.59;5083804;28;20112;-83
2023/07/16 00:53:26;;;;;;;9.55;3.00;;;;;;;19.92;100.00;97208.81;5083881;28;20469;-83
2023/07/16 00:56:11;;;;;;;7.28;2.80;;;;;;;19.81;100.00;97200.25;5080110;28;20047;-83
2023/07/16 00:58:55;;;;;;;9.55;3.00;;;;;;;20.04;100.00;97204.84;5078330;28;20111;-84
2023/07/16 01:01:39;;;;;;;7.80;3.08;;;;;;;19.55;100.00;97208.00;5078647;28;20505;-84
2023/07/16 01:04:23;;;;;;;8.07;2.55;;;;;;;19.38;100.00;97205.97;5079920;28;20050;-83
2023/07/16 01:07:11;;;;;;;6.55;2.58;;;;;;;19.77;100.00;97215.25;5082316;28;20063;-83
2023/07/16 01:09:56;;;;;;;9.10;2.63;;;;;;;19.71;100.00;97213.78;5077731;28;20048;-83
2023/07/16 01:12:40;;;;;;;6.45;2.45;;;;;;;19.97;100.00;97226.56;5081740;28;20097;-83
2023/07/16 01:15:37;;;;;;;5.93;2.33;;;;;;;19.74;100.00;97207.06;5079138;28;20055;-86
2023/07/16 01:18:22;;;;;;;7.82;2.28;;;;;;;19.89;100.00;97224.59;5081524;28;20094;-84
2023/07/16 01:21:06;;;;;;;12.63;2.70;;;;;;;19.81;100.00;97220.78;5077301;28;20051;-84
2023/07/16 01:24:18;;;;;;;6.93;2.03;;;;;;;19.58;100.00;97241.22;5081413;28;20394;-85
2023/07/16 01:27:29;;;;;;;3.25;2.10;;;;;;;19.43;100.00;97235.13;5073746;28;20050;-84
2023/07/16 01:30:17;;;;;;;6.90;2.58;;;;;;;19.45;100.00;97224.97;5083807;28;20083;-84
2023/07/16 01:33:03;;;;;;;6.60;1.95;;;;;;;19.10;100.00;97241.34;5078319;28;20047;-83
2023/07/16 01:35:50;;;;;;;3.42;1.80;;;;;;;19.05;100.00;97246.75;5081278;28;20043;-86
2023/07/16 01:38:36;;;;;;;4.20;2.05;;;;;;;19.04;100.00;97242.50;5078178;28;20039;-84
2023/07/16 01:41:20;;;;;;;5.82;1.75;;;;;;;19.22;100.00;97243.50;5078138;28;20067;-84
2023/07/16 01:44:03;;;;;;;4.68;1.75;;;;;;;18.88;100.00;97263.25;5083174;28;20083;-85
2023/07/16 01:47:15;;;;;;;2.97;1.58;;;;;;;18.86;100.00;97261.97;5083645;28;20074;-84
2023/07/16 01:49:59;;;;;;;4.80;1.50;;;;;;;18.65;100.00;97272.94;5081086;28;20043;-86
2023/07/16 01:52:43;;;;;;;;;;;;;;;18.50;100.00;97268.66;5081434;28;20086;-85
2023/07/16 01:55:27;;;;;;;6.68;1.50;;;;;;;18.70;100.00;97263.00;5079967;28;19970;-87
2023/07/16 01:58:11;;;;;;;3.35;1.70;;;;;;;18.91;100.00;97264.50;5083579;28;20558;-84
2023/07/16 02:00:55;;;;;;;4.38;1.77;;;;;;;19.00;100.00;97270.78;5086235;28;20109;-85
2023/07/16 02:03:38;;;;;;;4.28;1.63;;;;;;;19.09;100.00;97292.16;5087860;28;20085;-84
2023/07/16 02:06:22;;;;;;;2.85;1.48;;;;;;;18.86;100.00;97291.19;5081286;28;20624;-84
2023/07/16 02:09:06;;;;;;;2.92;1.70;;;;;;;18.81;100.00;97284.09;5082035;28;20047;-84
2023/07/16 02:11:51;;;;;;;7.43;1.98;;;;;;;18.72;100.00;97289.28;5078944;28;20047;-84
2023/07/16 02:14:35;;;;;;;3.42;1.40;;;;;;;18.63;100.00;97294.47;5082734;28;20043;-86
2023/07/16 02:17:19;;;;;;;4.90;1.70;;;;;;;18.77;100.00;97299.03;5087419;28;20063;-88
2023/07/16 02:20:07;;;;;;;3.40;1.27;;;;;;;19.07;100.00;97291.69;5084047;28;20047;-86
2023/07/16 02:22:51;;;;;;;4.20;1.48;;;;;;;18.94;100.00;97274.56;5082545;28;20103;-85
2023/07/16 02:25:35;;;;;;;2.92;1.50;;;;;;;18.76;100.00;97297.47;5086177;28;20070;-86
2023/07/16 02:28:19;;;;;;;2.83;1.40;;;;;;;18.60;100.00;97289.75;5083139;28;20140;-85
2023/07/16 02:31:03;;;;;;;3.50;1.23;;;;;;;18.48;100.00;97314.09;5083475;28;20496;-85
2023/07/16 02:33:47;;;;;;;3.17;1.20;;;;;;;18.52;100.00;97309.00;5080195;28;20398;-86
2023/07/16 02:36:31;;;;;;;5.60;1.23;;;;;;;18.78;100.00;97308.59;5084400;28;20046;-88
2023/07/16 02:39:15;;;;;;;2.72;1.30;;;;;;;18.75;100.00;97312.63;5078481;28;20448;-87
2023/07/16 02:41:59;;;;;;;2.63;1.17;;;;;;;18.70;100.00;97324.13;5081389;28;20093;-88
2023/07/16 02:44:44;;;;;;;3.25;1.20;;;;;;;18.61;100.00;97330.41;5082870;28;20521;-86
2023/07/16 02:47:28;;;;;;;2.80;1.38;;;;;;;18.82;100.00;97322.88;5090730;28;20031;-86
2023/07/16 02:50:12;;;;;;;3.13;1.10;;;;;;;18.75;100.00;97328.56;5077449;28;20040;-86
2023/07/16 02:52:56;;;;;;;3.22;1.30;;;;;;;18.79;100.00;97328.78;5082729;28;20104;-86
2023/07/16 02:55:40;;;;;;;4.88;1.52;;;;;;;18.98;100.00;97329.56;5080585;28;20055;-85
2023/07/16 02:58:24;;;;;;;1.83;1.20;;;;;;;18.98;100.00;97350.81;5084737;28;20085;-85
2023/07/16 03:01:08;;;;;;;3.38;1.33;;;;;;;18.65;100.00;97350.78;5081881;28;20070;-84
2023/07/16 03:03:52;;;;;;;4.10;1.17;;;;;;;18.79;100.00;97366.00;5086401;28;20035;-85
2023/07/16 03:06:36;;;;;;;2.88;1.27;;;;;;;18.57;100.00;97375.34;5086107;28;20054;-85
2023/07/16 03:09:20;;;;;;;2.92;0.93;;;;;;;18.64;100.00;97385.63;5082628;28;20081;-86
2023/07/16 03:12:05;;;;;;;1.58;1.00;;;;;;;18.48;100.00;97382.41;5081069;28;20039;-85
2023/07/16 03:14:50;;;;;;;3.75;1.50;;;;;;;18.74;100.00;97384.69;5078058;28;20047;-84
2023/07/16 03:17:35;;;;;;;4.50;2.53;;;;;;;18.24;100.00;97393.84;5086122;28;20051;-85
2023/07/16 03:20:18;;;;;;;4.90;3.80;;;;;;;18.11;100.00;97361.63;5083730;28;20039;-86
2023/07/16 03:23:03;;;;;;;6.88;3.10;;;;;;;18.08;100.00;97391.41;5083379;28;20051;-84
2023/07/16 03:25:47;;;;;;;4.65;3.20;;;;;;;18.32;100.00;97395.88;5085309;28;20078;-84
2023/07/16 03:28:31;;;;;;;5.93;2.92;;;;;;;18.31;100.00;97399.63;5082474;28;20410;-85
2023/07/16 03:31:15;;;;;;;7.57;3.58;;;;;;;18.48;100.00;97408.97;5087120;28;20090;-85
2023/07/16 03:33:59;;;;;;;4.43;2.75;;;;;;;18.45;100.00;97422.78;5080968;28;20127;-85
2023/07/16 03:36:43;;;;;;;6.63;2.70;;;;;;;18.34;100.00;97419.47;5086980;28;20077;-85
2023/07/16 03:39:27;;;;;;;4.68;2.63;;;;;;;18.77;100.00;97423.97;5079742;28;20035;-85
2023/07/16 03:42:11;;;;;;;6.15;2.55;;;;;;;18.57;100.00;97433.81;5085793;28;20047;-86
2023/07/16 03:44:55;;;;;;;4.82;2.05;;;;;;;18.56;100.00;97443.63;5080603;28;20552;-87
2023/07/16 03:47:39;;;;;;;4.57;2.03;;;;;;;18.09;100.00;97443.44;5081814;28;20143;-85
2023/07/16 03:50:23;;;;;;;5.53;2.40;;;;;;;18.64;100.00;97444.84;5081886;28;20047;-86
2023/07/16 03:53:07;;;;;;;5.50;1.75;;;;;;;18.31;100.00;97447.41;5077977;28;20121;-85
2023/07/16 03:55:51;;;;;;;4.03;1.92;;;;;;;18.27;100.00;97451.69;5085911;28;20118;-85
2023/07/16 03:58:35;;;;;;;3.70;2.00;;;;;;;18.16;100.00;97450.25;5081655;28;20124;-85
2023/07/16 04:01:19;;;;;;;5.25;2.13;;;;;;;18.44;100.00;97471.69;5083458;28;20386;-86
2023/07/16 04:04:03;;;;;;;4.03;1.83;;;;;;;18.84;100.00;97474.88;5079618;28;20051;-86
2023/07/16 04:06:47;;;;;;;2.92;1.55;;;;;;;18.89;100.00;97482.81;5082015;28;20059;-84
2023/07/16 04:09:31;;;;;;;6.63;2.33;;;;;;;18.87;100.00;97484.97;5084864;28;20042;-84
2023/07/16 04:12:15;;;;;;;4.70;1.95;;;;;;;18.73;100.00;97484.88;5082707;28;20077;-85
2023/07/16 04:15:00;;;;;;;6.00;2.10;;;;;;;18.55;100.00;97483.78;5077468;28;20036;-85
2023/07/16 04:17:44;;;;;;;4.28;2.20;;;;;;;18.80;100.00;97493.28;5079067;28;20398;-85
2023/07/16 04:20:28;;;;;;;7.30;2.80;;;;;;;19.00;100.00;97495.97;5079624;28;20116;-85
2023/07/16 04:23:13;;;;;;;5.18;3.05;;;;;;;18.96;100.00;97504.50;5080072;28;20105;-86
2023/07/16 04:25:57;;;;;;;7.20;3.60;;;;;;;18.74;100.00;97504.28;5083705;28;20039;-84
2023/07/16 04:28:41;;;;;;;5.68;4.13;;;;;;;19.01;100.00;97516.16;5081156;28;20529;-85
2023/07/16 04:31:24;;;;;;;6.35;4.80;;;;;;;18.94;100.00;97516.50;5074840;28;20462;-86
2023/07/16 04:34:09;;;;;;;6.28;4.63;;;;;;;18.86;100.00;97528.56;5082219;28;20516;-87
2023/07/16 04:36:53;;;;;;;;;;;;;;;18.76;100.00;97526.03;5079719;28;20089;-86
2023/07/16 04:39:37;;;;;;;8.15;4.47;;;;;;;19.06;100.00;97535.50;5074950;28;20430;-84
2023/07/16 04:42:24;;;;;;;4.80;2.92;;;;;;;19.14;100.00;97542.06;5076636;28;20521;-86
2023/07/16 04:45:08;;;;;;;4.95;2.15;;;;;;;18.60;100.00;97536.84;5078784;28;20055;-85
2023/07/16 04:47:52;;;;;;;4.03;1.67;;;;;;;19.00;100.00;97547.31;5078396;28;20062;-83
2023/07/16 04:50:36;;;;;;;3.85;1.50;;;;;;;19.06;100.00;97550.66;5076560;28;20047;-83
2023/07/16 04:53:22;;;;;;;2.72;1.55;;;;;;;18.83;100.00;97553.06;5078914;28;20050;-83
2023/07/16 04:56:16;;;;;;;2.28;1.42;;;;;;;18.88;100.00;97561.00;5078701;28;20047;-82
2023/07/16 04:59:00;;;;;;;4.00;1.77;;;;;;;18.88;100.00;97561.00;5085363;28;21710;-82
2023/07/16 05:01:44;;;;;;;3.63;1.77;;;;;;;19.11;100.00;97564.69;5082016;28;20429;-83
2023/07/16 05:04:28;;;;;;;2.42;1.90;;;;;;;19.08;100.00;97561.81;5077042;28;20035;-85
2023/07/16 05:07:12;;;;;;;4.85;2.45;;;;;;;18.74;100.00;97570.72;5081571;28;20098;-84
2023/07/16 05:09:57;;;;;;;6.22;2.17;;;;;;;18.90;100.00;97566.81;5077218;28;20568;-84
2023/07/16 05:12:41;;;;;;;5.32;2.60;;;;;;;18.97;100.00;97585.84;5080139;28;20043;-84
2023/07/16 05:15:24;;;;;;;4.78;3.53;;;;;;;18.98;100.00;97587.47;5080513;28;20067;-85
2023/07/16 05:18:09;;;;;;;8.32;3.00;;;;;;;19.16;100.00;97582.44;5078331;28;20098;-84
2023/07/16 05:20:52;;;;;;;4.43;1.90;;;;;;;19.04;100.00;97592.69;5078106;28;20170;-82
2023/07/16 05:23:36;;;;;;;4.63;2.00;;;;;;;18.92;100.00;97601.88;5083895;28;20131;-84
2023/07/16 05:26:20;;;;;;;4.45;1.63;;;;;;;19.04;100.00;97612.13;5076025;28;20090;-80
2023/07/16 05:29:04;;;;;;;5.43;1.90;;;;;;;19.19;100.00;97613.78;5079982;28;20047;-80
2023/07/16 05:31:48;;;;;;;6.85;2.40;;;;;;;18.92;100.00;97617.81;5080243;28;20042;-80
2023/07/16 05:34:33;;;;;;;5.82;3.63;;;;;;;18.74;100.00;97618.56;5078447;28;20488;-83
2023/07/16 05:37:17;;;;;;;4.88;4.30;;;;;;;19.05;100.00;97619.03;5079493;28;20065;-82
2023/07/16 05:40:03;;;;;;;7.13;4.00;;;;;;;19.25;100.00;97622.50;5077571;28;20043;-80
2023/07/16 05:42:47;;;;;;;5.07;3.83;;;;;;;18.81;100.00;97613.69;5082025;28;20063;-81
2023/07/16 05:45:31;;;;;;;6.30;3.85;;;;;;;19.03;100.00;97631.00;5083136;28;20051;-82
2023/07/16 05:48:15;;;;;;;5.78;3.22;;;;;;;19.20;100.00;97639.31;5077800;28;20094;-81
2023/07/16 05:50:59;;;;;;;6.65;4.47;;;;;;;18.90;100.00;97664.38;5078959;28;20094;-80
2023/07/16 05:53:43;;;;;;;12.15;5.40;;;;;;;18.97;100.00;97654.19;5079163;28;20100;-81
2023/07/16 05:56:27;;;;;;;9.95;5.20;;;;;;;18.88;100.00;97669.19;5079258;28;20410;-81
2023/07/16 05:59:11;;;;;;;12.27;5.80;;;;;;;19.20;100.00;97676.53;5083194;28;20070;-80
2023/07/16 06:01:57;;;;;;;7.82;5.50;;;;;;;19.11;100.00;97676.38;5077468;28;20070;-80
2023/07/16 06:04:41;;;;;;;9.07;5.15;;;;;;;18.74;100.00;97699.06;5077535;28;20512;-81
2023/07/16 06:07:25;;;;;;;11.07;6.13;;;;;;;18.47;100.00;97675.69;5081574;28;20520;-81
2023/07/16 06:10:10;;;;;;;11.85;5.50;;;;;;;18.86;100.00;97685.41;5078404;28;20565;-80
2023/07/16 06:12:54;;;;;;;10.18;6.10;;;;;;;19.30;100.00;97682.84;5077648;28;20433;-82
2023/07/16 06:15:38;;;;;;;8.88;5.70;;;;;;;19.05;100.00;97684.69;5076857;28;20039;-81
2023/07/16 06:18:22;;;;;;;10.40;5.97;;;;;;;19.46;100.00;97702.84;5078257;28;20081;-79
2023/07/16 06:21:06;;;;;;;10.05;5.32;;;;;;;19.71;100.00;97695.59;5080312;28;20559;-80
2023/07/16 06:23:50;;;;;;;12.00;5.30;;;;;;;19.33;100.00;97703.53;5079378;28;20544;-79
2023/07/16 06:26:35;;;;;;;9.25;5.15;;;;;;;19.10;100.00;97711.25;5078505;28;20043;-80
2023/07/16 06:29:19;;;;;;;11.93;4.78;;;;;;;19.30;100.00;97706.78;5079474;28;20110;-80
2023/07/16 06:32:03;;;;;;;8.98;5.20;;;;;;;19.01;100.00;97710.28;5079069;28;20390;-80
2023/07/16 06:34:47;;;;;;;9.13;4.15;;;;;;;19.18;100.00;97723.91;5082974;28;20128;-80
2023/07/16 06:37:31;;;;;;;10.35;4.32;;;;;;;19.32;100.00;97728.56;5084268;28;20552;-80
2023/07/16 06:40:15;;;;;;;11.60;5.05;;;;;;;19.36;100.00;97730.38;5089639;28;20047;-80
2023/07/16 06:42:59;;;;;;;12.68;4.50;;;;;;;19.10;100.00;97735.19;5085840;28;20053;-80
2023/07/16 06:45:44;;;;;;;9.57;3.95;;;;;;;19.29;100.00;97739.78;5085021;28;20513;-81
2023/07/16 06:48:28;;;;;;;8.25;3.95;;;;;;;19.12;100.00;97744.44;5080633;28;20143;-81
2023/07/16 06:51:12;;;;;;;7.82;3.63;;;;;;;19.36;100.00;97751.66;5079880;28;20617;-81
2023/07/16 06:53:56;;;;;;;10.50;3.90;;;;;;;19.33;100.00;97762.06;5083300;28;21890;-81
2023/07/16 06:56:39;;;;;;;;;;;;;;;19.15;100.00;97756.41;5082856;28;20089;-81
2023/07/16 06:59:23;;;;;;;10.70;3.67;;;;;;;19.35;100.00;97760.69;5078962;28;19964;-80
2023/07/16 07:02:07;;;;;;;11.48;3.58;;;;;;;19.78;100.00;97767.13;5084581;28;20097;-81
2023/07/16 07:04:52;;;;;;;9.68;3.28;;;;;;;20.53;100.00;97770.84;5084728;28;20047;-80
2023/07/16 07:07:36;;;;;;;9.98;3.40;;;;;;;20.76;100.00;97773.69;5082880;28;20115;-81
2023/07/16 07:10:20;;;;;;;6.80;3.10;;;;;;;20.24;100.00;97779.81;5086523;28;20465;-81
2023/07/16 07:13:04;;;;;;;9.48;3.38;;;;;;;20.46;100.00;97769.66;5081290;28;20117;-82
2023/07/16 07:15:48;;;;;;;10.40;3.05;;;;;;;20.38;100.00;97790.53;5082726;28;20075;-78
2023/07/16 07:18:32;;;;;;;9.50;3.60;;;;;;;20.35;100.00;97777.78;5073402;28;20170;-82
2023/07/16 07:21:16;;;;;;;7.07;3.03;;;;;;;20.66;100.00;97793.31;5085833;28;20504;-82
2023/07/16 07:23:59;;;;;;;6.03;2.78;;;;;;;20.77;100.00;97795.78;5083219;28;20081;-83
2023/07/16 07:26:44;;;;;;;7.63;2.78;;;;;;;21.07;100.00;97799.06;5078879;28;20406;-82
2023/07/16 07:29:28;;;;;;;6.40;2.63;;;;;;;21.55;100.00;97790.66;5075496;28;20097;-83
2023/07/16 07:32:12;;;;;;;6.10;2.80;;;;;;;20.64;100.00;97813.34;5078396;28;20047;-82
2023/07/16 07:34:56;;;;;;;7.13;2.65;;;;;;;20.72;100.00;97804.66;5080284;28;20402;-84
2023/07/16 07:37:40;;;;;;;8.57;2.72;;;;;;;21.31;100.00;97832.78;5081651;28;20395;-81
2023/07/16 07:40:26;;;;;;;5.90;2.90;;;;;;;20.71;99.46;97807.63;5080208;28;20036;-86
2023/07/16 07:43:11;;;;;;;7.35;3.08;;;;;;;21.26;98.33;97812.31;5081581;28;20043;-85
2023/07/16 07:45:55;;;;;;;11.52;3.50;;;;;;;21.33;95.35;97811.94;5079398;28;20206;-85
2023/07/16 07:48:39;;;;;;;6.80;2.78;;;;;;;21.53;95.49;97816.88;5078183;28;20422;-84
2023/07/16 07:51:24;;;;;;;5.88;2.78;;;;;;;21.37;94.65;97823.59;5083092;28;20121;-83
2023/07/16 07:54:10;;;;;;;9.15;3.05;;;;;;;21.57;94.26;97821.63;5082251;28;20608;-85
2023/07/16 07:56:55;;;;;;;7.57;2.92;;;;;;;21.66;93.96;97833.22;5084460;28;20079;-85
2023/07/16 07:59:38;;;;;;;11.90;3.65;;;;;;;22.29;93.87;97835.38;5082312;28;20409;-84
2023/07/16 08:02:26;;;;;;;7.88;3.28;;;;;;;22.37;92.85;97840.03;5082055;28;20098;-84
2023/07/16 08:05:16;;;;;;;7.38;3.10;;;;;;;22.57;91.93;97838.78;5080300;28;20054;-88
2023/07/16 08:08:00;;;;;;;8.57;2.67;;;;;;;22.17;90.67;97838.59;5080540;28;20097;-84
2023/07/16 08:10:45;;;;;;;9.75;3.40;;;;;;;22.37;89.48;97837.34;5081658;28;20082;-78
2023/07/16 08:13:29;;;;;;;9.98;3.05;;;;;;;22.01;90.43;97849.63;5074787;28;20090;-80
2023/07/16 08:16:14;;;;;;;9.82;3.05;;;;;;;21.60;91.19;97856.53;5071461;28;20098;-79
2023/07/16 08:18:57;;;;;;;6.70;2.85;;;;;;;21.76;91.49;97851.72;5077756;28;20402;-78
2023/07/16 08:21:43;;;;;;;7.03;3.30;;;;;;;21.29;91.08;97864.31;5081279;28;20047;-80
2023/07/16 08:24:28;;;;;;;6.72;2.90;;;;;;;21.29;92.15;97870.44;5077006;28;20089;-79
2023/07/16 08:27:12;;;;;;;9.40;3.20;;;;;;;21.71;92.95;97867.84;5079945;28;20504;-80
2023/07/16 08:29:56;;;;;;;6.93;2.83;;;;;;;22.34;91.07;97872.72;5069854;28;20039;-79
2023/07/16 08:32:40;;;;;;;5.28;2.85;;;;;;;22.34;88.02;97878.06;5078495;28;20040;-79
2023/07/16 08:35:24;;;;;;;9.70;3.30;;;;;;;22.35;87.50;97868.94;5072787;28;20394;-81
2023/07/16 08:38:11;;;;;;;11.38;3.13;;;;;;;22.49;87.56;97890.31;5079612;28;20440;-81
2023/07/16 08:40:55;;;;;;;7.07;3.42;;;;;;;22.32;87.84;97888.28;5078241;28;20051;-80
2023/07/16 08:43:40;;;;;;;7.78;3.53;;;;;;;22.44;86.23;97895.75;5082239;28;20085;-80
2023/07/16 08:46:24;;;;;;;4.32;2.88;;;;;;;22.20;85.78;97905.59;5073296;28;20055;-80
2023/07/16 08:49:10;;;;;;;6.32;3.05;;;;;;;22.38;85.81;97924.47;5076027;28;20035;-83
2023/07/16 08:51:55;;;;;;;6.32;2.80;;;;;;;22.76;85.79;97918.06;5081022;28;20041;-82
2023/07/16 08:54:39;;;;;;;6.40;3.45;;;;;;;22.52;84.18;97956.56;5079271;28;20043;-81
2023/07/16 08:57:23;;;;;;;8.75;3.58;;;;;;;22.52;84.84;97945.88;5081181;28;20090;-82
2023/07/16 09:00:09;;;;;;;6.55;3.97;;;;;;;22.87;83.94;97940.81;5078706;28;20043;-83
2023/07/16 09:02:53;;;;;;;8.02;3.33;;;;;;;23.05;82.42;97949.00;5078945;28;20105;-81
2023/07/16 09:05:38;;;;;;;9.02;3.38;;;;;;;23.01;84.10;97962.19;5077473;28;20062;-81
2023/07/16 09:08:28;;;;;;;7.22;3.30;;;;;;;22.86;83.68;97974.03;5083008;28;20132;-82
2023/07/16 09:11:13;;;;;;;8.05;3.00;;;;;;;23.05;84.01;97983.78;5076840;28;20165;-81
2023/07/16 09:13:57;;;;;;;5.68;2.80;;;;;;;23.32;83.24;97968.72;5076688;28;20089;-81
2023/07/16 09:16:41;;;;;;;7.50;2.88;;;;;;;23.47;82.48;97962.97;5083052;28;20389;-82
2023/07/16 09:19:25;;;;;;;4.30;2.78;;;;;;;23.85;81.58;97971.69;5078796;28;20035;-81
2023/07/16 09:22:10;;;;;;;10.10;3.35;;;;;;;23.41;81.24;97966.91;5079266;28;20097;-81
2023/07/16 09:24:56;;;;;;;10.10;3.08;;;;;;;22.98;82.11;97976.16;5076949;28;20568;-81
2023/07/16 09:27:40;;;;;;;7.07;2.60;;;;;;;23.14;81.04;97975.81;5080569;28;20031;-81
2023/07/16 09:30:24;;;;;;;6.95;2.72;;;;;;;23.01;81.34;97972.09;5081388;28;20034;-81
2023/07/16 09:33:22;;;;;;;7.97;2.70;;;;;;;23.11;81.15;97979.88;5080011;28;20175;-80
2023/07/16 09:36:06;;;;;;;4.93;2.38;;;;;;;23.28;79.87;97989.16;5078636;28;20114;-81
2023/07/16 09:38:52;;;;;;;8.95;2.40;;;;;;;23.50;79.51;97988.38;5081106;28;20043;-81
2023/07/16 09:41:42;;;;;;;6.15;2.50;;;;;;;23.45;80.54;97986.59;5079051;28;20034;-80
2023/07/16 09:44:26;;;;;;;4.80;2.35;;;;;;;22.88;81.54;97995.09;5081081;28;20038;-80
2023/07/16 09:47:10;;;;;;;11.73;3.38;;;;;;;22.61;80.49;97996.75;5079933;28;20118;-81
2023/07/16 09:49:55;;;;;;;5.15;2.88;;;;;;;22.22;82.74;98001.53;5083112;28;20448;-80
2023/07/16 09:52:42;;;;;;;7.15;2.63;;;;;;;22.42;83.96;98005.66;5081802;28;20067;-81
2023/07/16 09:55:27;;;;;;;12.25;3.15;;;;;;;22.16;82.21;98002.69;5080191;28;20046;-80
2023/07/16 09:58:12;;;;;;;5.68;2.40;;;;;;;22.18;83.12;98016.56;5082609;28;20055;-81
2023/07/16 10:01:01;;;;;;;7.75;2.88;;;;;;;22.57;81.55;98009.16;5080429;28;20433;-81
2023/07/16 10:03:52;;;;;;;4.28;2.33;;;;;;;23.64;80.28;98021.19;5078134;28;20046;-81
2023/07/16 10:06:36;;;;;;;8.68;2.25;;;;;;;23.55;78.62;98015.00;5083049;28;20047;-81
2023/07/16 10:09:40;;;;;;;5.07;2.10;;;;;;;24.02;77.73;98030.75;5078673;28;20810;-81
2023/07/16 10:12:26;;;;;;;6.80;2.50;;;;;;;24.20;77.81;98036.19;5080339;28;20551;-82
2023/07/16 10:15:11;;;;;;;6.72;2.60;;;;;;;23.83;76.84;98055.03;5087095;28;20505;-81
2023/07/16 10:17:56;;;;;;;6.43;2.40;;;;;;;23.28;77.40;98066.81;5083107;28;20081;-82
2023/07/16 10:20:43;;;;;;;9.05;2.72;;;;;;;23.39;79.57;98062.81;5082522;28;20082;-81
2023/07/16 10:23:40;;;;;;;4.68;2.28;;;;;;;23.19;81.87;98067.50;5083926;28;20119;-81
2023/07/16 10:26:28;;;;;;;8.07;2.40;;;;;;;23.42;82.25;98083.63;5081437;28;20051;-81
2023/07/16 10:29:14;;;;;;;6.20;2.33;;;;;;;22.60;82.70;98065.53;5083017;28;20126;-81
2023/07/16 10:31:58;;;;;;;6.10;2.85;;;;;;;22.39;82.99;98071.22;5085537;28;20066;-81
2023/07/16 10:34:43;;;;;;;9.07;2.38;;;;;;;22.53;82.85;98076.63;5082197;28;20558;-81
2023/07/16 10:37:27;;;;;;;5.35;2.33;;;;;;;22.58;82.42;98083.72;5088752;28;20077;-81
2023/07/16 10:40:13;;;;;;;12.30;3.33;;;;;;;22.33;83.73;98088.44;5084395;28;20047;-81
2023/07/16 10:42:56;;;;;;;5.28;2.72;;;;;;;22.72;82.91;98083.75;5082055;28;20394;-81
2023/07/16 10:45:41;;;;;;;6.93;2.80;;;;;;;22.82;83.18;98085.41;5083720;28;20039;-81
2023/07/16 10:48:26;;;;;;;4.68;2.45;;;;;;;22.97;82.50;98074.38;5081365;28;20508;-82
2023/07/16 10:51:13;;;;;;;4.32;2.42;;;;;;;22.88;81.84;98097.59;5080903;28;20047;-82
2023/07/16 10:53:58;;;;;;;4.43;2.28;;;;;;;23.78;80.68;98081.97;5077733;28;20497;-81
2023/07/16 10:56:43;;;;;;;8.90;2.60;;;;;;;23.96;79.73;98083.66;5080367;28;20051;-81
2023/07/16 10:59:28;;;;;;;8.43;2.45;;;;;;;23.53;80.50;98097.56;5087959;28;20234;-82
2023/07/16 11:02:13;;;;;;;6.15;2.50;;;;;;;24.32;80.31;98073.91;5081654;28;20070;-78
2023/07/16 11:04:57;;;;;;;7.10;2.63;;;;;;;25.21;78.63;98089.16;5076977;28;20889;-79
2023/07/16 11:07:46;;;;;;;3.45;1.90;;;;;;;24.87;75.90;98073.81;5076710;28;20051;-79
2023/07/16 11:10:30;;;;;;;3.60;2.10;;;;;;;24.52;76.68;98085.19;5074630;28;20118;-78
2023/07/16 11:13:14;;;;;;;2.85;1.73;;;;;;;24.30;76.68;98091.44;5077980;28;20493;-79
2023/07/16 11:16:08;;;;;;;5.70;2.00;;;;;;;24.01;76.66;98093.47;5077261;28;20039;-78
2023/07/16 11:18:54;;;;;;;7.55;2.47;;;;;;;24.11;76.40;98089.75;5076752;28;20040;-78
2023/07/16 11:21:38;;;;;;;4.32;2.22;;;;;;;24.47;75.59;98090.69;5078083;28;20406;-79
2023/07/16 11:24:22;;;;;;;4.78;1.80;;;;;;;24.36;75.17;98088.28;5077315;28;20043;-78
2023/07/16 11:27:16;;;;;;;5.22;2.15;;;;;;;25.17;74.53;98088.22;5080711;28;20051;-78
2023/07/16 11:30:01;;;;;;;5.75;2.05;;;;;;;25.65;72.65;98091.06;5081945;28;20043;-79
2023/07/16 11:32:51;;;;;;;6.03;1.80;;;;;;;25.97;74.37;98096.22;5075367;28;20102;-79
2023/07/16 11:35:36;;;;;;;7.18;2.05;;;;;;;25.81;71.02;98097.53;5075361;28;20120;-79
2023/07/16 11:38:20;;;;;;;4.65;1.98;;;;;;;25.80;71.21;98093.25;5080365;28;20109;-79
2023/07/16 11:41:05;;;;;;;3.97;1.90;;;;;;;25.96;71.67;98100.81;5078977;28;20050;-79
2023/07/16 11:43:49;;;;;;;3.92;2.00;;;;;;;26.16;71.45;98098.56;5077290;28;20390;-79
2023/07/16 11:46:33;;;;;;;4.88;2.20;;;;;;;24.88;71.70;98103.00;5078296;28;20090;-79
2023/07/16 11:49:18;;;;;;;6.10;2.20;;;;;;;24.18;87.95;98118.81;5076512;28;20039;-79
2023/07/16 11:52:02;;;;;;;6.25;2.20;;;;;;;29.28;100.00;98193.97;5079789;28;20059;-80
2023/07/16 11:54:48;;;;;;;8.70;2.95;;;;;;;25.92;100.00;98127.53;5077598;28;20058;-80
2023/07/16 11:57:32;;;;;;;5.07;2.50;;;;;;;25.96;100.00;98138.47;5068413;28;20137;-80
2023/07/16 12:00:19;;;;;;;6.80;3.00;;;;;;;26.04;99.92;98143.00;5072942;28;20497;-80
2023/07/16 12:03:07;;;;;;;7.35;3.13;;;;;;;25.33;100.00;98136.06;5075149;28;20144;-81
2023/07/16 12:05:51;;;;;;;6.30;2.80;;;;;;;25.32;99.41;98131.78;5071673;28;20219;-80
2023/07/16 12:08:35;;;;;;;7.32;3.20;;;;;;;25.29;100.00;98137.81;5070502;28;20050;-79
2023/07/16 12:11:19;;;;;;;8.23;3.10;;;;;;;25.26;99.32;98127.69;5075217;28;20044;-79
2023/07/16 12:14:03;;;;;;;6.90;2.97;;;;;;;25.08;96.90;98133.84;5079340;28;20104;-80
2023/07/16 12:16:47;;;;;;;5.10;2.83;;;;;;;24.87;93.99;98127.47;5075744;28;20067;-78
2023/07/16 12:19:31;;;;;;;5.32;2.58;;;;;;;25.71;94.81;98135.47;5077455;28;20031;-78
2023/07/16 12:22:17;;;;;;;4.55;2.65;;;;;;;26.51;93.10;98150.34;5074179;28;20449;-78
2023/07/16 12:25:02;;;;;;;7.25;2.45;;;;;;;27.18;89.13;98152.56;5077376;28;20393;-78
2023/07/16 12:27:46;;;;;;;4.60;2.08;;;;;;;27.72;87.30;98161.06;5075086;28;20178;-78
2023/07/16 12:30:30;;;;;;;3.63;2.17;;;;;;;27.45;84.30;98155.09;5070964;28;20134;-78
2023/07/16 12:33:14;;;;;;;3.60;2.28;;;;;;;27.62;83.72;98151.50;5075582;28;20126;-79
2023/07/16 12:36:01;;;;;;;4.88;2.90;;;;;;;27.58;81.11;98159.44;5079137;28;20513;-80
2023/07/16 12:38:45;;;;;;;8.15;2.50;;;;;;;27.67;78.17;98148.59;5081627;28;20147;-79
2023/07/16 12:41:29;;;;;;;4.93;2.40;;;;;;;26.09;79.17;98158.97;5075975;28;20505;-79
2023/07/16 12:44:13;;;;;;;4.88;2.15;;;;;;;26.35;79.68;98177.00;5079074;28;20048;-78
2023/07/16 12:46:59;;;;;;;6.20;2.85;;;;;;;25.28;79.41;98192.63;5077018;28;20101;-79
2023/07/16 12:49:44;;;;;;;11.98;3.50;;;;;;;37.25;100.00;98241.75;5072917;28;20048;-79
2023/07/16 12:52:27;;;;;;;6.25;3.40;;;;;;;32.47;100.00;98193.31;5076616;28;20055;-79